Time;durP1;ratioP1;P1;durP2;ratioP2;P2;SDS_P1;SDS_P2;PMS_P1;PMS_P2;Temp;Humidity;BMP_temperature;BMP_pressure;BME280_temperature;BME280_humidity;BME280_pressure;Samples;Min_cycle;Max_cycle;Signal;HPM_P1;HPM_P2
2024/04/19 00:00:53;;;;;;;5.33;3.53;;;6.00;74.20;;;7.79;54.65;97816.09;5403317;26;20367;-41
2024/04/19 00:03:22;;;;;;;5.10;3.60;;;6.00;74.10;;;7.79;54.56;97812.59;5448437;26;20031;-41
2024/04/19 00:05:50;;;;;;;5.40;3.77;;;6.10;74.10;;;7.81;54.78;97811.50;5449031;26;20039;-41
2024/04/19 00:08:35;;;;;;;4.63;3.27;;;6.10;73.90;;;7.80;54.69;97804.50;5449589;26;20027;-41
2024/04/19 00:11:03;;;;;;;5.60;3.67;;;6.10;74.10;;;7.77;54.87;97802.13;5449591;26;20042;-41
2024/04/19 00:13:32;;;;;;;3.90;2.87;;;6.10;74.00;;;7.77;54.84;97798.63;5449003;26;20027;-41
2024/04/19 00:16:00;;;;;;;5.77;3.30;;;6.00;74.20;;;7.76;54.70;97803.13;5449103;26;20370;-42
2024/04/19 00:18:28;;;;;;;6.23;3.83;;;6.00;74.10;;;7.77;54.96;97803.94;5448071;26;20340;-41
2024/04/19 00:20:57;;;;;;;5.77;4.20;;;6.00;74.20;;;7.78;54.86;97797.69;5449193;26;20624;-41
2024/04/19 00:23:25;;;;;;;6.57;3.60;;;6.10;73.80;;;7.78;54.95;97795.03;5449007;26;20324;-41
2024/04/19 00:25:54;;;;;;;5.63;3.50;;;6.10;73.80;;;7.78;54.92;97790.56;5417118;26;20425;-41
2024/04/19 00:28:38;;;;;;;4.85;3.50;;;6.00;73.60;;;7.79;54.46;97786.09;5449350;26;20042;-49
2024/04/19 00:31:06;;;;;;;6.53;4.03;;;6.00;73.40;;;7.78;54.64;97785.25;5449010;26;20038;-41
2024/04/19 00:33:35;;;;;;;5.27;3.50;;;6.00;73.40;;;7.79;54.80;97780.78;5449166;26;20047;-41
2024/04/19 00:36:04;;;;;;;5.40;3.83;;;6.00;73.50;;;7.76;54.73;97771.31;5448389;26;20034;-41
2024/04/19 00:38:32;;;;;;;6.00;3.93;;;6.00;73.60;;;7.78;54.77;97776.47;5445593;26;20384;-41
2024/04/19 00:40:59;;;;;;;5.30;4.33;;;6.00;73.70;;;7.78;54.71;97776.47;5449456;26;20066;-42
2024/04/19 00:43:27;;;;;;;8.97;5.00;;;6.00;73.30;;;7.75;54.89;97776.75;5449118;26;20027;-41
2024/04/19 00:45:55;;;;;;;4.80;3.63;;;6.00;73.30;;;7.75;54.64;97779.41;5448298;26;20039;-41
2024/04/19 00:48:26;;;;;;;6.93;3.87;;;6.00;73.40;;;7.75;54.54;97785.53;5450167;26;20043;-41
2024/04/19 00:51:00;;;;;;;5.93;3.33;;;6.00;73.20;;;7.78;54.94;97779.13;5421323;26;20038;-41
2024/04/19 00:53:33;;;;;;;7.90;5.53;;;6.10;73.40;;;7.80;54.53;97785.94;5421431;26;20482;-41
2024/04/19 00:56:21;;;;;;;14.10;7.27;;;6.10;73.10;;;7.82;54.67;97781.34;5452531;26;20486;-41
2024/04/19 00:58:50;;;;;;;7.63;4.70;;;6.20;72.60;;;7.84;54.48;97778.56;5452157;26;20156;-41
2024/04/19 01:01:18;;;;;;;8.47;4.13;;;6.20;72.10;;;7.83;54.66;97777.72;5450799;26;20035;-41
2024/04/19 01:03:47;;;;;;;6.33;3.73;;;6.20;72.30;;;7.88;54.58;97778.13;5451175;26;20039;-41
2024/04/19 01:06:15;;;;;;;7.90;4.30;;;6.20;72.60;;;7.91;54.37;97770.88;5451826;26;20042;-41
2024/04/19 01:08:44;;;;;;;6.83;3.90;;;6.20;72.80;;;7.92;54.38;97770.72;5452526;26;20050;-41
2024/04/19 01:11:28;;;;;;;8.77;4.03;;;6.20;72.80;;;7.93;54.40;97766.25;5424650;26;20042;-41
2024/04/19 01:13:57;;;;;;;5.73;3.83;;;6.20;73.30;;;7.95;54.30;97770.47;5404710;26;20030;-41
2024/04/19 01:16:25;;;;;;;5.60;3.70;;;6.10;73.20;;;7.94;54.32;97766.13;5451806;26;20475;-41
2024/04/19 01:18:52;;;;;;;6.03;4.17;;;6.20;73.10;;;7.92;54.34;97757.47;5451846;26;20027;-41
2024/04/19 01:21:21;;;;;;;7.53;3.97;;;6.10;73.10;;;7.90;54.14;97756.78;5413073;26;20027;-41
2024/04/19 01:23:58;;;;;;;5.93;3.77;;;6.10;73.40;;;7.94;54.15;97760.81;5437918;26;20370;-41
2024/04/19 01:26:26;;;;;;;5.47;3.60;;;6.00;73.00;;;7.93;54.44;97751.22;5451909;26;20027;-41
2024/04/19 01:28:54;;;;;;;6.10;4.10;;;6.10;73.30;;;7.91;54.08;97739.91;5450717;26;20051;-41
2024/04/19 01:31:21;;;;;;;7.17;3.60;;;6.00;73.00;;;7.90;54.10;97751.47;5451754;26;20023;-41
2024/04/19 01:33:49;;;;;;;6.70;3.70;;;6.00;72.70;;;7.86;54.13;97750.94;5451786;26;20039;-41
2024/04/19 01:36:17;;;;;;;8.03;4.13;;;6.00;72.50;;;7.83;53.97;97750.38;5451570;26;20101;-41
2024/04/19 01:38:48;;;;;;;5.07;4.03;;;6.00;72.40;;;7.84;54.34;97747.59;5419032;26;20050;-41
2024/04/19 01:41:15;;;;;;;4.70;3.70;;;6.00;72.50;;;7.82;53.95;97743.41;5450144;26;20050;-41
2024/04/19 01:43:44;;;;;;;4.60;3.57;;;6.00;72.20;;;7.84;54.16;97746.75;5448742;26;20040;-41
2024/04/19 01:46:11;;;;;;;5.13;3.43;;;6.00;72.30;;;7.86;54.42;97747.44;5451280;26;20043;-41
2024/04/19 01:48:39;;;;;;;10.30;4.00;;;6.00;72.50;;;7.88;54.00;97741.00;5451409;26;20039;-41
2024/04/19 01:51:07;;;;;;;4.57;3.40;;;6.10;72.50;;;7.89;53.98;97736.56;5451602;26;20031;-41
2024/04/19 01:53:35;;;;;;;5.63;3.57;;;6.10;71.80;;;7.89;54.11;97733.91;5403748;26;20031;-41
2024/04/19 01:56:03;;;;;;;4.40;3.10;;;6.10;71.70;;;7.91;53.78;97736.41;5450887;26;20381;-41
2024/04/19 01:58:39;;;;;;;4.60;3.07;;;6.10;70.90;;;7.92;53.68;97733.63;5448331;26;20035;-41
2024/04/19 02:01:07;;;;;;;4.83;3.70;;;6.10;70.90;;;7.93;53.71;97737.97;5390674;26;20038;-41
2024/04/19 02:03:38;;;;;;;5.47;3.00;;;6.10;70.90;;;7.89;53.34;97725.97;5448438;26;20451;-41
2024/04/19 02:06:12;;;;;;;5.57;3.07;;;6.10;69.30;;;7.89;53.17;97724.16;5450693;26;20352;-41
2024/04/19 02:08:40;;;;;;;7.78;2.90;;;6.10;69.70;;;7.90;53.06;97722.31;5451548;26;20023;-41
2024/04/19 02:11:08;;;;;;;4.27;3.17;;;6.10;69.90;;;7.93;53.04;97724.69;5451389;26;20023;-41
2024/04/19 02:13:36;;;;;;;4.77;3.07;;;6.20;69.90;;;7.97;53.19;97727.88;5451114;26;20506;-41
2024/04/19 02:16:04;;;;;;;4.40;3.23;;;6.10;70.50;;;8.01;53.17;97729.28;5417885;26;20022;-41
2024/04/19 02:18:32;;;;;;;5.80;3.03;;;6.10;70.30;;;8.01;53.17;97718.69;5451110;26;20031;-41
2024/04/19 02:21:00;;;;;;;6.90;3.00;;;6.10;70.50;;;8.02;53.46;97723.00;5450981;26;20043;-41
2024/04/19 02:23:36;;;;;;;5.50;3.53;;;6.10;70.80;;;7.99;53.01;97715.34;5451517;26;20026;-41
2024/04/19 02:26:05;;;;;;;6.13;3.77;;;6.20;70.10;;;8.01;53.51;97714.22;5449318;26;20038;-41
2024/04/19 02:31:22;;;;;;;7.80;3.50;;;6.20;69.90;;;7.99;53.15;97702.09;5450380;26;20463;-41
2024/04/19 02:33:50;;;;;;;6.67;3.73;;;6.20;70.80;;;7.98;53.21;97701.22;5451174;26;20027;-41
2024/04/19 02:36:18;;;;;;;5.93;3.40;;;6.30;69.40;;;7.98;53.20;97698.56;5449644;26;20402;-41
2024/04/19 02:38:46;;;;;;;6.30;3.77;;;6.20;70.00;;;7.97;53.08;97701.38;5451114;26;20043;-40
2024/04/19 02:41:14;;;;;;;8.07;4.17;;;6.20;69.60;;;7.89;53.37;97684.38;5418058;26;20043;-37
2024/04/19 02:43:48;;;;;;;4.73;3.30;;;6.20;69.80;;;7.90;53.34;97685.22;5450528;26;20366;-37
2024/04/19 02:46:19;;;;;;;7.00;3.13;;;6.20;69.50;;;7.91;53.22;97673.66;5448178;26;20031;-36
2024/04/19 02:48:49;;;;;;;5.80;3.13;;;6.20;69.40;;;7.92;52.98;97677.13;5450122;26;20051;-36
2024/04/19 02:51:17;;;;;;;5.20;2.93;;;6.20;69.90;;;7.92;53.30;97675.31;5450774;26;20489;-37
2024/04/19 02:53:47;;;;;;;6.00;3.13;;;6.30;69.80;;;7.93;53.08;97671.69;5419298;26;20043;-36
2024/04/19 02:56:14;;;;;;;6.77;3.60;;;6.30;69.20;;;7.89;53.11;97673.78;5450231;26;20042;-36
2024/04/19 02:58:42;;;;;;;6.60;3.80;;;6.20;70.00;;;7.86;53.02;97667.94;5450474;26;20030;-37
2024/04/19 03:01:10;;;;;;;6.37;4.30;;;6.20;69.20;;;7.89;53.32;97665.81;5448035;26;20363;-37
2024/04/19 03:03:38;;;;;;;4.30;3.17;;;6.20;69.50;;;7.86;53.04;97660.81;5449503;26;20027;-37
2024/04/19 03:06:06;;;;;;;5.10;3.17;;;6.20;69.50;;;7.94;53.03;97661.91;5450253;26;20335;-36
2024/04/19 03:08:34;;;;;;;5.77;3.53;;;6.30;69.60;;;7.89;52.99;97654.41;5449259;26;20042;-36
2024/04/19 03:11:04;;;;;;;7.63;4.10;;;6.20;69.20;;;7.89;53.37;97660.53;5449907;26;20069;-37
2024/04/19 03:13:32;;;;;;;5.70;3.17;;;6.20;69.40;;;7.89;53.31;97657.88;5448260;26;20034;-37
2024/04/19 03:16:18;;;;;;;6.33;4.10;;;6.20;69.80;;;7.92;53.21;97650.63;5450162;26;20039;-37
2024/04/19 03:18:46;;;;;;;5.60;3.60;;;6.30;69.40;;;7.95;53.31;97651.16;5450531;26;20422;-37
2024/04/19 03:21:14;;;;;;;5.60;3.70;;;6.30;69.70;;;7.95;52.77;97656.47;5448770;26;20035;-37
2024/04/19 03:23:42;;;;;;;6.67;3.77;;;6.30;69.40;;;7.97;52.84;97656.31;5450390;26;20022;-37
2024/04/19 03:26:10;;;;;;;5.97;3.33;;;6.30;69.50;;;7.99;52.89;97647.25;5449791;26;20026;-37
2024/04/19 03:28:37;;;;;;;8.40;3.97;;;6.30;69.20;;;7.93;52.91;97645.19;5450192;26;20027;-37
2024/04/19 03:31:08;;;;;;;6.50;3.87;;;6.30;69.30;;;7.94;52.95;97644.19;5450271;26;20038;-37
2024/04/19 03:33:36;;;;;;;5.73;4.20;;;6.30;69.40;;;7.92;52.69;97630.22;5449377;26;20030;-37
2024/04/19 03:36:06;;;;;;;6.83;4.57;;;6.20;69.30;;;7.94;52.72;97630.91;5449349;26;20031;-37
2024/04/19 03:38:34;;;;;;;6.40;4.17;;;6.20;68.70;;;7.99;52.82;97630.50;5448005;26;20042;-37
2024/04/19 03:41:02;;;;;;;5.60;4.23;;;6.20;69.20;;;7.91;53.10;97625.94;5448860;26;20043;-36
2024/04/19 03:43:33;;;;;;;5.30;3.47;;;6.20;69.20;;;7.96;52.90;97623.66;5432542;26;20040;-37
2024/04/19 03:46:01;;;;;;;4.20;3.57;;;6.20;68.80;;;7.94;52.85;97616.84;5434697;26;20034;-37
2024/04/19 03:48:29;;;;;;;7.33;4.13;;;6.20;69.10;;;7.95;52.84;97615.84;5418031;26;20034;-37
2024/04/19 03:50:57;;;;;;;6.63;3.93;;;6.20;68.50;;;7.95;52.52;97611.41;5418254;26;20023;-37
2024/04/19 03:53:25;;;;;;;7.07;3.97;;;6.20;68.80;;;7.96;52.75;97607.75;5448340;26;20030;-37
2024/04/19 03:55:52;;;;;;;4.83;3.43;;;6.20;68.80;;;7.98;52.37;97616.41;5449277;26;20034;-37
2024/04/19 03:58:20;;;;;;;5.97;4.07;;;6.30;69.10;;;7.97;52.75;97616.53;5448251;26;20062;-37
2024/04/19 04:00:48;;;;;;;10.03;6.37;;;6.20;69.00;;;7.96;52.71;97615.69;5417754;26;20424;-37
2024/04/19 04:03:16;;;;;;;6.67;4.20;;;6.20;69.20;;;8.01;52.71;97604.69;5448999;26;20030;-37
2024/04/19 04:05:50;;;;;;;7.63;4.07;;;6.20;68.60;;;8.01;52.47;97602.84;5416594;26;20039;-35
2024/04/19 04:08:17;;;;;;;;;;;6.20;68.90;;;8.03;52.94;97594.75;5418672;26;20034;-36
2024/04/19 04:10:45;;;;;;;6.63;3.70;;;6.30;68.60;;;8.08;52.47;97593.34;5449642;26;20003;-36
2024/04/19 04:13:13;;;;;;;7.70;4.10;;;6.30;69.30;;;8.06;52.35;97595.31;5408026;26;20363;-40
2024/04/19 04:15:41;;;;;;;6.47;4.20;;;6.30;69.40;;;8.00;52.40;97595.88;5443478;26;20040;-36
2024/04/19 04:18:09;;;;;;;7.00;4.10;;;6.20;69.10;;;7.97;52.54;97587.38;5448984;26;20042;-36
2024/04/19 04:20:37;;;;;;;5.73;3.77;;;6.20;69.30;;;7.98;52.72;97579.28;5449525;26;20031;-35
2024/04/19 04:23:06;;;;;;;6.07;4.00;;;6.20;69.70;;;8.01;52.75;97586.13;5415360;26;20030;-36
2024/04/19 04:25:35;;;;;;;6.97;4.47;;;6.20;70.00;;;8.01;52.58;97573.69;5448903;26;20039;-36
2024/04/19 04:28:04;;;;;;;6.07;3.80;;;6.20;70.00;;;7.96;52.49;97575.13;5432495;26;20017;-36
2024/04/19 04:30:31;;;;;;;4.87;3.40;;;6.20;69.80;;;7.94;52.63;97569.94;5447016;26;20039;-40
2024/04/19 04:32:59;;;;;;;6.90;4.10;;;6.20;69.80;;;7.92;53.14;97576.38;5448916;26;20043;-40
2024/04/19 04:35:27;;;;;;;7.70;4.20;;;6.20;69.80;;;7.86;52.89;97572.50;5448360;26;20023;-40
2024/04/19 04:37:55;;;;;;;5.37;3.40;;;6.20;70.40;;;7.85;53.11;97574.31;5416909;26;20485;-40
2024/04/19 04:40:23;;;;;;;6.60;3.97;;;6.20;70.30;;;7.83;53.28;97565.69;5447885;26;20031;-40
2024/04/19 04:42:51;;;;;;;5.40;4.00;;;6.20;70.60;;;7.79;53.42;97571.41;5448409;26;20482;-40
2024/04/19 04:45:19;;;;;;;5.63;3.97;;;6.10;70.90;;;7.83;53.20;97556.88;5448100;26;20377;-40
2024/04/19 04:47:47;;;;;;;6.73;3.80;;;6.10;70.60;;;7.81;53.33;97558.84;5448810;26;20034;-39
2024/04/19 04:50:15;;;;;;;6.07;3.70;;;6.10;70.40;;;7.71;53.78;97558.88;5448265;26;20042;-40
2024/04/19 04:52:42;;;;;;;7.43;4.43;;;6.10;70.80;;;7.75;53.33;97567.38;5448493;26;20035;-40
2024/04/19 04:55:10;;;;;;;6.63;4.10;;;6.10;70.80;;;7.75;53.64;97564.72;5415537;26;20043;-40
2024/04/19 04:57:38;;;;;;;5.73;4.33;;;6.10;70.60;;;7.77;53.30;97558.28;5416904;26;20031;-40
2024/04/19 05:00:08;;;;;;;5.53;3.50;;;6.20;71.00;;;7.75;53.48;97568.22;5448528;26;20043;-40
2024/04/19 05:02:35;;;;;;;7.20;3.73;;;6.10;70.90;;;7.76;53.63;97561.94;5448436;26;20039;-40
2024/04/19 05:05:04;;;;;;;7.77;4.23;;;6.10;71.30;;;7.78;53.74;97564.44;5447099;26;20107;-40
2024/04/19 05:07:31;;;;;;;8.50;4.80;;;6.20;71.20;;;7.75;53.90;97562.09;5429960;26;20030;-40
2024/04/19 05:09:59;;;;;;;6.70;3.93;;;6.10;71.20;;;7.78;53.42;97559.16;5446927;26;20043;-40
2024/04/19 05:12:28;;;;;;;6.20;4.43;;;6.10;71.10;;;7.73;53.67;97562.22;5379944;26;20035;-40
2024/04/19 05:14:56;;;;;;;5.83;3.50;;;6.10;70.90;;;7.67;53.82;97563.63;5444867;26;20038;-40
2024/04/19 05:17:24;;;;;;;6.07;4.33;;;6.10;71.20;;;7.67;54.15;97570.75;5448204;26;20153;-40
2024/04/19 05:19:52;;;;;;;5.97;3.87;;;6.10;71.30;;;7.65;54.13;97568.25;5448062;26;20040;-40
2024/04/19 05:22:19;;;;;;;6.20;3.30;;;6.10;71.00;;;7.66;53.98;97566.44;5409665;26;20103;-40
2024/04/19 05:24:48;;;;;;;6.33;4.17;;;6.10;71.30;;;7.60;54.08;97573.16;5442408;26;20031;-39
2024/04/19 05:27:16;;;;;;;4.40;3.37;;;6.10;70.70;;;7.68;53.81;97567.97;5446218;26;20354;-39
2024/04/19 05:29:44;;;;;;;7.07;3.63;;;6.20;70.50;;;7.67;54.04;97554.84;5447984;26;20391;-40
2024/04/19 05:32:12;;;;;;;5.60;3.70;;;6.20;70.70;;;7.64;54.35;97563.13;5447817;26;20054;-40
2024/04/19 05:34:42;;;;;;;7.67;3.37;;;6.20;70.80;;;7.78;53.71;97564.44;5418767;26;20399;-37
2024/04/19 05:37:09;;;;;;;6.40;3.80;;;6.30;70.50;;;7.82;53.87;97555.22;5419121;26;20035;-36
2024/04/19 05:39:37;;;;;;;4.50;3.37;;;6.40;70.60;;;7.87;54.36;97564.41;5451317;26;20038;-36
2024/04/19 05:42:05;;;;;;;5.33;3.40;;;6.40;70.90;;;7.86;53.80;97557.44;5450994;26;20034;-36
2024/04/19 05:44:33;;;;;;;6.87;4.23;;;6.40;70.70;;;7.81;54.09;97561.50;5450290;26;20383;-36
2024/04/19 05:47:01;;;;;;;4.23;3.40;;;6.40;71.20;;;7.83;54.13;97563.03;5450703;26;20042;-36
2024/04/19 05:49:29;;;;;;;6.50;3.97;;;6.40;71.10;;;7.91;54.36;97564.97;5451073;26;20384;-36
2024/04/19 05:51:56;;;;;;;5.23;4.27;;;6.40;71.40;;;7.97;54.20;97560.84;5450286;26;20030;-36
2024/04/19 05:54:24;;;;;;;7.80;3.73;;;6.50;72.70;;;7.88;55.01;97573.19;5449329;26;20039;-36
2024/04/19 05:56:52;;;;;;;5.33;3.40;;;6.40;73.90;;;7.90;55.32;97571.22;5451202;26;20022;-36
2024/04/19 05:59:20;;;;;;;4.00;3.03;;;6.40;76.20;;;7.75;56.27;97567.38;5450970;26;20030;-37
2024/04/19 06:01:48;;;;;;;5.23;3.20;;;6.20;75.90;;;7.64;56.52;97561.28;5448649;26;20031;-36
2024/04/19 06:04:34;;;;;;;6.23;4.40;;;6.20;77.30;;;7.81;56.45;97551.75;5447464;26;20031;-36
2024/04/19 06:07:02;;;;;;;7.10;4.10;;;6.20;77.70;;;7.91;56.02;97553.50;5450857;26;20375;-36
2024/04/19 06:09:30;;;;;;;6.27;3.30;;;6.30;77.10;;;7.92;56.16;97548.06;5450446;26;20031;-36
2024/04/19 06:12:01;;;;;;;4.23;2.80;;;6.40;77.50;;;8.00;56.23;97534.06;5451254;26;20027;-36
2024/04/19 06:14:29;;;;;;;6.13;3.30;;;6.40;77.10;;;8.06;56.07;97542.28;5417064;26;20058;-36
2024/04/19 06:16:57;;;;;;;5.47;3.43;;;6.50;76.90;;;8.00;56.22;97532.25;5451185;26;20142;-36
2024/04/19 06:19:25;;;;;;;4.10;3.10;;;6.40;77.20;;;8.05;56.16;97534.47;5430520;26;20046;-36
2024/04/19 06:21:52;;;;;;;5.17;3.57;;;6.50;77.20;;;8.14;55.96;97530.91;5449588;26;20031;-36
2024/04/19 06:24:24;;;;;;;5.93;4.03;;;6.50;77.00;;;8.12;56.14;97521.44;5450083;26;20483;-36
2024/04/19 06:26:52;;;;;;;6.87;4.43;;;6.50;76.40;;;8.12;56.22;97524.09;5450718;26;20059;-36
2024/04/19 06:29:20;;;;;;;3.63;3.10;;;6.50;76.70;;;8.15;55.93;97523.81;5450751;26;20034;-36
2024/04/19 06:31:48;;;;;;;4.07;3.03;;;6.50;76.50;;;8.15;56.31;97526.47;5450854;26;20031;-36
2024/04/19 06:34:16;;;;;;;4.97;3.13;;;6.50;76.90;;;8.20;56.16;97524.19;5448807;26;20046;-36
2024/04/19 06:36:43;;;;;;;5.47;3.13;;;6.50;77.00;;;8.24;56.15;97515.78;5450101;26;20030;-37
2024/04/19 06:39:21;;;;;;;6.57;3.80;;;6.50;77.70;;;8.30;56.26;97514.38;5402885;26;20039;-36
2024/04/19 06:41:49;;;;;;;5.40;3.77;;;6.60;78.60;;;8.29;56.64;97508.19;5450888;26;20035;-36
2024/04/19 06:44:17;;;;;;;6.87;4.10;;;6.60;78.50;;;8.30;56.39;97503.75;5403190;26;20026;-36
2024/04/19 06:46:45;;;;;;;5.50;4.10;;;6.60;77.50;;;8.33;56.24;97499.94;5450081;26;20521;-36
2024/04/19 06:49:12;;;;;;;6.90;3.93;;;6.60;78.30;;;8.27;56.35;97499.56;5450905;26;20046;-39
2024/04/19 06:51:40;;;;;;;4.93;3.70;;;6.60;78.20;;;8.32;56.61;97485.00;5449175;26;20029;-37
2024/04/19 06:54:11;;;;;;;5.33;4.13;;;6.60;78.80;;;8.35;56.37;97496.16;5450476;26;20026;-37
2024/04/19 06:56:38;;;;;;;5.23;3.93;;;6.60;78.50;;;8.32;57.13;97485.88;5450848;26;20034;-44
2024/04/19 06:59:07;;;;;;;6.83;5.50;;;6.60;78.60;;;8.36;56.92;97481.09;5449353;26;20039;-37
2024/04/19 07:01:36;;;;;;;8.90;4.53;;;6.60;80.00;;;8.26;57.22;97476.69;5450395;26;20003;-37
2024/04/19 07:04:04;;;;;;;7.77;4.93;;;6.50;79.30;;;8.37;56.99;97477.44;5449567;26;20043;-37
2024/04/19 07:06:32;;;;;;;6.23;4.10;;;6.60;80.20;;;8.38;57.10;97479.13;5449891;26;20383;-37
2024/04/19 07:09:11;;;;;;;7.10;4.63;;;6.60;80.30;;;8.36;57.24;97473.97;5450331;26;20039;-37
2024/04/19 07:11:39;;;;;;;7.00;3.80;;;6.60;79.30;;;8.36;57.27;97475.78;5450394;26;20034;-37
2024/04/19 07:14:07;;;;;;;8.60;4.00;;;6.60;80.20;;;8.36;57.00;97473.13;5449820;26;20030;-37
2024/04/19 07:16:35;;;;;;;7.43;4.63;;;6.70;79.80;;;8.39;57.07;97472.81;5406760;26;20389;-37
2024/04/19 07:19:05;;;;;;;6.00;3.97;;;6.70;80.30;;;8.37;57.25;97466.84;5445026;26;20034;-37
2024/04/19 07:21:33;;;;;;;5.47;3.90;;;6.70;79.90;;;8.38;57.19;97460.56;5450438;26;20043;-37
2024/04/19 07:24:01;;;;;;;8.70;6.67;;;6.70;79.80;;;8.33;57.65;97463.66;5449803;26;20028;-37
2024/04/19 07:26:29;;;;;;;7.67;5.00;;;6.60;79.90;;;8.35;57.24;97458.19;5448861;26;20050;-37
2024/04/19 07:28:59;;;;;;;5.10;3.97;;;6.60;79.80;;;8.35;57.21;97460.84;5450296;26;20031;-37
2024/04/19 07:31:27;;;;;;;7.73;4.70;;;6.60;79.30;;;8.27;57.20;97459.78;5436923;26;20047;-37
2024/04/19 07:33:55;;;;;;;5.57;3.83;;;6.60;79.40;;;8.30;57.20;97453.34;5450449;26;20027;-37
2024/04/19 07:36:24;;;;;;;5.30;3.83;;;6.60;80.00;;;8.29;57.41;97443.72;5435023;26;20457;-37
2024/04/19 07:38:52;;;;;;;5.60;4.37;;;6.60;80.20;;;8.32;57.33;97440.78;5448398;26;20009;-37
2024/04/19 07:41:20;;;;;;;5.43;3.80;;;6.60;81.00;;;8.32;57.46;97432.81;5448611;26;20038;-37
2024/04/19 07:43:48;;;;;;;5.57;3.77;;;6.60;80.70;;;8.29;57.52;97431.28;5381981;26;20474;-36
2024/04/19 07:46:22;;;;;;;7.10;4.73;;;6.50;81.00;;;8.12;58.22;97437.41;5450016;26;20066;-37
2024/04/19 07:48:50;;;;;;;6.03;3.77;;;6.40;81.70;;;8.06;58.01;97430.06;5446670;26;20489;-36
2024/04/19 07:51:18;;;;;;;4.97;3.70;;;6.30;81.20;;;8.09;58.15;97435.91;5418202;26;20628;-36
2024/04/19 07:53:45;;;;;;;4.83;3.77;;;6.30;81.70;;;8.09;57.90;97427.97;5449081;26;20027;-37
2024/04/19 07:56:13;;;;;;;5.80;3.47;;;6.40;81.50;;;8.11;57.95;97419.03;5448969;26;20070;-37
2024/04/19 07:58:43;;;;;;;4.53;3.73;;;6.40;81.00;;;8.13;57.84;97422.38;5448522;26;20046;-36
2024/04/19 08:01:11;;;;;;;6.23;3.90;;;6.40;81.00;;;8.14;57.89;97424.84;5449495;26;20438;-36
2024/04/19 08:03:39;;;;;;;7.63;3.87;;;6.40;80.60;;;8.12;58.20;97418.84;5448672;26;20335;-36
2024/04/19 08:06:08;;;;;;;5.53;3.90;;;6.40;82.20;;;8.20;58.10;97418.97;5449111;26;20066;-36
2024/04/19 08:08:35;;;;;;;7.17;4.27;;;6.50;82.40;;;8.27;58.36;97411.22;5449827;26;20044;-36
2024/04/19 08:11:03;;;;;;;5.47;4.23;;;6.50;84.10;;;8.32;58.23;97408.09;5449913;26;20030;-36
2024/04/19 08:13:31;;;;;;;4.43;3.10;;;6.50;81.60;;;8.25;57.73;97407.88;5416127;26;20030;-36
2024/04/19 08:16:00;;;;;;;4.80;3.63;;;6.50;80.40;;;8.22;57.94;97405.53;5448410;26;20030;-36
2024/04/19 08:18:28;;;;;;;4.00;2.83;;;6.40;80.50;;;8.17;57.88;97415.78;5435021;26;20043;-36
2024/04/19 08:20:56;;;;;;;5.27;3.40;;;6.40;81.40;;;8.07;58.27;97403.41;5449423;26;20035;-36
2024/04/19 08:23:26;;;;;;;5.57;3.20;;;6.40;81.10;;;8.07;58.17;97406.06;5449679;26;20031;-36
2024/04/19 08:25:54;;;;;;;3.93;3.20;;;6.30;82.80;;;8.14;58.21;97400.16;5448942;26;20035;-36
2024/04/19 08:28:25;;;;;;;5.47;3.50;;;6.30;82.50;;;8.08;58.51;97398.94;5417559;26;20021;-37
2024/04/19 08:30:53;;;;;;;5.73;3.37;;;6.30;83.20;;;8.06;58.74;97385.00;5411254;26;20028;-36
2024/04/19 08:33:21;;;;;;;4.73;3.63;;;6.20;84.40;;;7.98;58.74;97396.34;5445669;26;20042;-36
2024/04/19 08:35:56;;;;;;;4.00;2.93;;;6.20;84.00;;;7.82;59.16;97377.66;5449034;26;20035;-36
2024/04/19 08:38:25;;;;;;;6.00;2.83;;;6.10;84.40;;;7.77;59.27;97374.63;5415951;26;20046;-36
2024/04/19 08:40:58;;;;;;;5.03;2.60;;;6.00;84.90;;;7.82;59.25;97367.88;5448937;26;20031;-36
2024/04/19 08:43:32;;;;;;;3.42;2.60;;;6.10;85.70;;;7.83;59.26;97361.59;5448767;26;20058;-36
2024/04/19 08:46:02;;;;;;;2.97;2.00;;;6.10;85.00;;;7.78;59.09;97363.03;5418322;26;20043;-36
2024/04/19 08:48:32;;;;;;;3.77;2.67;;;6.10;83.10;;;7.75;59.45;97363.34;5403464;26;20038;-36
2024/04/19 08:51:01;;;;;;;4.20;2.40;;;6.00;85.30;;;7.71;59.39;97349.53;5417393;26;20034;-36
2024/04/19 08:53:30;;;;;;;4.37;2.20;;;5.90;85.30;;;7.52;59.92;97345.19;5417677;26;20031;-36
2024/04/19 08:55:59;;;;;;;2.63;1.80;;;5.80;85.00;;;7.57;59.73;97337.66;5416693;26;20146;-36
2024/04/19 08:58:27;;;;;;;3.33;2.37;;;5.80;86.40;;;7.56;59.50;97330.69;5417576;26;20106;-35
2024/04/19 09:00:55;;;;;;;2.37;1.80;;;5.80;84.70;;;7.56;59.91;97325.41;5416083;26;20030;-36
2024/04/19 09:03:23;;;;;;;2.87;1.80;;;5.80;85.90;;;7.60;59.52;97324.13;5415059;26;20027;-36
2024/04/19 09:05:51;;;;;;;2.90;1.93;;;5.90;85.90;;;7.65;59.73;97327.13;5447225;26;20038;-36
2024/04/19 09:08:19;;;;;;;3.03;1.90;;;5.90;85.00;;;7.71;59.86;97317.75;5449859;26;20536;-35
2024/04/19 09:10:51;;;;;;;2.93;1.93;;;5.90;85.60;;;7.74;59.57;97308.69;5452220;26;20038;-35
2024/04/19 09:13:18;;;;;;;3.07;1.90;;;5.90;86.60;;;7.78;59.60;97304.75;5420551;26;20030;-35
2024/04/19 09:15:47;;;;;;;2.93;1.90;;;5.90;85.60;;;7.69;59.16;97304.66;5451368;26;20027;-35
2024/04/19 09:18:15;;;;;;;2.27;1.83;;;5.90;85.00;;;7.71;59.64;97288.59;5450713;26;20030;-35
2024/04/19 09:20:47;;;;;;;2.33;1.60;;;5.90;85.60;;;7.69;59.31;97280.78;5452195;26;20479;-36
2024/04/19 09:23:14;;;;;;;2.83;1.77;;;5.80;84.60;;;7.68;59.25;97291.56;5452042;26;20339;-35
2024/04/19 09:25:42;;;;;;;2.43;1.40;;;5.80;86.00;;;7.63;59.65;97285.88;5450578;26;20027;-35
2024/04/19 09:28:12;;;;;;;2.00;1.60;;;5.80;86.40;;;7.54;59.90;97270.88;5450849;26;20367;-35
2024/04/19 09:30:41;;;;;;;3.10;1.97;;;5.70;85.70;;;7.55;59.76;97270.75;5420213;26;20471;-37
2024/04/19 09:33:09;;;;;;;2.40;1.70;;;5.70;86.40;;;7.62;59.82;97260.38;5413932;26;20043;-35
2024/04/19 09:35:38;;;;;;;2.70;2.03;;;5.80;87.20;;;7.66;59.70;97256.44;5451049;26;20058;-35
2024/04/19 09:38:08;;;;;;;2.27;1.77;;;5.80;86.40;;;7.64;59.76;97251.28;5450459;26;20035;-35
2024/04/19 09:40:36;;;;;;;3.07;2.53;;;5.80;86.30;;;7.67;59.90;97244.84;5406495;26;20486;-35
2024/04/19 09:43:06;;;;;;;2.90;1.90;;;5.90;86.40;;;7.71;60.00;97237.44;5449967;26;20043;-35
2024/04/19 09:45:43;;;;;;;2.40;1.80;;;5.90;86.60;;;7.62;60.30;97237.38;5418789;26;20031;-35
2024/04/19 09:48:17;;;;;;;2.93;1.80;;;5.90;86.40;;;7.59;59.97;97227.06;5451500;26;20047;-35
2024/04/19 09:50:51;;;;;;;2.23;1.63;;;5.80;86.60;;;7.63;60.13;97219.66;5451849;26;20027;-35
2024/04/19 09:53:30;;;;;;;2.97;2.05;;;5.80;87.10;;;7.65;59.79;97215.03;5451404;26;20044;-35
2024/04/19 09:56:45;;;;;;;4.57;1.87;;;5.90;86.10;;;7.69;60.25;97198.66;5451557;26;20030;-35
2024/04/19 09:59:14;;;;;;;3.72;1.90;;;5.90;87.60;;;7.73;60.16;97195.72;5432013;26;20026;-35
2024/04/19 10:01:43;;;;;;;2.57;1.70;;;5.90;87.20;;;7.63;60.48;97201.94;5420314;26;20042;-35
2024/04/19 10:04:11;;;;;;;1.97;1.70;;;5.80;87.80;;;7.68;60.37;97189.06;5450307;26;20039;-35
2024/04/19 10:06:40;;;;;;;3.43;2.50;;;5.90;88.00;;;7.71;60.62;97187.91;5451692;26;20433;-35
2024/04/19 10:09:20;;;;;;;2.67;2.17;;;5.90;87.60;;;7.75;60.38;97180.50;5448965;26;20003;-34
2024/04/19 10:11:49;;;;;;;3.77;2.47;;;5.90;88.70;;;7.73;60.36;97183.28;5408361;26;20051;-34
2024/04/19 10:14:17;;;;;;;3.00;1.90;;;5.90;88.90;;;7.69;60.33;97173.97;5419138;26;20038;-34
2024/04/19 10:16:45;;;;;;;2.33;1.87;;;5.90;88.60;;;7.58;61.01;97174.22;5451728;26;20031;-34
2024/04/19 10:19:14;;;;;;;3.63;1.83;;;5.80;88.70;;;7.64;61.21;97182.41;5418793;26;20047;-34
2024/04/19 10:21:42;;;;;;;2.60;2.00;;;5.90;89.40;;;7.62;61.00;97170.31;5413204;26;20035;-35
2024/04/19 10:24:17;;;;;;;2.40;1.97;;;5.90;88.30;;;7.65;61.25;97165.50;5443603;26;20043;-35
2024/04/19 10:26:53;;;;;;;2.60;1.87;;;5.90;88.90;;;7.61;61.19;97169.47;5437196;26;20030;-35
2024/04/19 10:29:27;;;;;;;2.73;1.80;;;5.90;89.30;;;7.68;60.75;97151.97;5451204;26;20042;-35
2024/04/19 10:31:56;;;;;;;2.35;1.52;;;6.00;88.60;;;7.56;61.56;97147.06;5451215;26;20036;-35
2024/04/19 10:34:24;;;;;;;2.70;1.90;;;5.90;88.40;;;7.56;61.07;97155.00;5451029;26;20034;-35
2024/04/19 10:36:52;;;;;;;2.23;1.77;;;5.90;88.70;;;7.62;61.10;97149.13;5419101;26;20034;-35
2024/04/19 10:39:21;;;;;;;1.80;1.60;;;5.90;89.30;;;7.60;61.37;97140.47;5451063;26;20043;-36
2024/04/19 10:41:53;;;;;;;2.57;1.97;;;6.00;88.50;;;7.59;61.66;97130.88;5434426;26;20039;-35
2024/04/19 10:44:21;;;;;;;2.60;2.10;;;6.00;89.30;;;7.56;62.04;97132.03;5404542;26;20038;-35